createdAt,value
2019-02-16T00:01:50.633Z,3.07
2019-02-16T00:04:19.553Z,2.67
2019-02-16T00:06:48.744Z,3.10
2019-02-16T00:09:17.856Z,3.35
2019-02-16T00:11:46.731Z,3.10
2019-02-16T00:14:15.899Z,3.40
2019-02-16T00:16:44.738Z,3.20
2019-02-16T00:19:13.911Z,3.05
2019-02-16T00:21:42.919Z,2.90
2019-02-16T00:24:11.776Z,3.10
2019-02-16T00:26:40.823Z,3.20
2019-02-16T00:29:10.246Z,3.22
2019-02-16T00:31:39.570Z,3.03
2019-02-16T00:34:08.652Z,3.20
2019-02-16T00:36:37.656Z,3.00
2019-02-16T00:39:06.735Z,3.55
2019-02-16T00:41:35.585Z,2.83
2019-02-16T00:44:04.722Z,3.17
2019-02-16T00:46:33.591Z,2.93
2019-02-16T00:49:02.572Z,2.85
2019-02-16T00:51:31.596Z,2.80
2019-02-16T00:54:00.734Z,3.52
2019-02-16T00:56:29.822Z,2.90
2019-02-16T00:58:58.852Z,3.25
2019-02-16T01:01:27.774Z,2.83
2019-02-16T01:03:57.428Z,3.33
2019-02-16T01:06:26.579Z,3.70
2019-02-16T01:08:55.758Z,3.40
2019-02-16T01:11:24.935Z,3.00
2019-02-16T01:13:54.329Z,3.37
2019-02-16T01:16:23.383Z,3.35
2019-02-16T01:18:52.366Z,3.27
2019-02-16T01:21:23.119Z,3.85
2019-02-16T01:23:52.226Z,3.45
2019-02-16T01:26:21.159Z,3.40
2019-02-16T01:28:50.319Z,3.65
2019-02-16T01:31:19.194Z,2.80
2019-02-16T01:33:48.222Z,2.83
2019-02-16T01:36:17.243Z,3.60
2019-02-16T01:38:46.144Z,3.08
2019-02-16T01:41:15.599Z,3.40
2019-02-16T01:43:44.631Z,3.58
2019-02-16T01:46:13.633Z,3.43
2019-02-16T01:48:42.618Z,3.27
2019-02-16T01:51:11.475Z,3.05
2019-02-16T01:53:40.532Z,4.20
2019-02-16T01:56:09.503Z,3.40
2019-02-16T01:58:38.502Z,3.12
2019-02-16T02:01:07.536Z,3.23
2019-02-16T02:03:36.868Z,3.45
2019-02-16T02:06:05.801Z,3.60
2019-02-16T02:08:35.000Z,3.85
2019-02-16T02:11:05.176Z,3.77
2019-02-16T02:13:34.107Z,3.40
2019-02-16T02:16:03.319Z,3.87
2019-02-16T02:18:32.623Z,4.03
2019-02-16T02:21:01.476Z,3.45
2019-02-16T02:23:30.830Z,4.25
2019-02-16T02:25:59.913Z,4.15
2019-02-16T02:28:28.739Z,3.98
2019-02-16T02:30:58.300Z,3.72
2019-02-16T02:33:27.753Z,3.80
2019-02-16T02:35:56.708Z,4.27
2019-02-16T02:38:25.689Z,4.10
2019-02-16T02:40:54.554Z,4.23
2019-02-16T02:43:23.613Z,3.67
2019-02-16T02:45:52.576Z,3.67
2019-02-16T02:48:21.454Z,3.62
2019-02-16T02:50:50.529Z,3.90
2019-02-16T02:53:19.563Z,3.98
2019-02-16T02:55:48.771Z,3.62
2019-02-16T02:58:17.788Z,3.47
2019-02-16T03:00:46.746Z,3.37
2019-02-16T03:03:15.807Z,3.65
2019-02-16T03:05:44.761Z,3.73
2019-02-16T03:08:13.635Z,3.50
2019-02-16T03:10:42.759Z,3.60
2019-02-16T03:13:11.704Z,3.50
2019-02-16T03:15:40.675Z,2.85
2019-02-16T03:18:10.069Z,3.30
2019-02-16T03:20:38.995Z,3.40
2019-02-16T03:23:19.700Z,3.77
2019-02-16T03:26:09.944Z,3.80
2019-02-16T03:28:49.294Z,3.40
2019-02-16T03:31:53.361Z,3.17
2019-02-16T03:34:29.994Z,3.25
2019-02-16T03:37:45.548Z,3.77
2019-02-16T03:40:14.396Z,3.67
2019-02-16T03:42:43.295Z,3.30
2019-02-16T03:45:12.452Z,3.90
2019-02-16T03:47:41.893Z,3.90
2019-02-16T03:50:10.949Z,3.62
2019-02-16T03:52:39.940Z,3.87
2019-02-16T03:55:09.332Z,4.05
2019-02-16T03:57:38.676Z,3.62
2019-02-16T04:00:08.319Z,4.20
2019-02-16T04:02:37.548Z,3.85
2019-02-16T04:05:07.674Z,3.58
2019-02-16T04:07:36.674Z,3.37
2019-02-16T04:10:06.128Z,3.25
2019-02-16T04:12:35.129Z,3.47
2019-02-16T04:15:04.683Z,3.17
2019-02-16T04:17:33.596Z,4.03
2019-02-16T04:20:02.674Z,3.47
2019-02-16T04:22:31.581Z,4.10
2019-02-16T04:25:00.801Z,3.42
2019-02-16T04:27:29.835Z,3.23
2019-02-16T04:29:58.807Z,3.30
2019-02-16T04:32:27.992Z,3.47
2019-02-16T04:34:57.689Z,3.67
2019-02-16T04:37:27.147Z,3.67
2019-02-16T04:39:56.201Z,3.75
2019-02-16T04:42:25.243Z,3.80
2019-02-16T04:44:54.202Z,3.40
2019-02-16T04:47:23.086Z,3.50
2019-02-16T04:49:52.436Z,3.25
2019-02-16T04:52:21.375Z,4.17
2019-02-16T04:54:50.262Z,3.80
2019-02-16T04:57:19.336Z,3.67
2019-02-16T04:59:48.474Z,3.40
2019-02-16T05:02:17.420Z,3.80
2019-02-16T05:04:46.713Z,3.58
2019-02-16T05:07:15.524Z,3.77
2019-02-16T05:09:44.890Z,4.12
2019-02-16T05:12:13.788Z,3.55
2019-02-16T05:14:43.208Z,4.12
2019-02-16T05:17:12.228Z,3.80
2019-02-16T05:19:41.180Z,4.00
2019-02-16T05:22:10.114Z,4.00
2019-02-16T05:24:39.266Z,4.00
2019-02-16T05:27:08.164Z,3.43
2019-02-16T05:29:37.180Z,3.20
2019-02-16T05:32:06.094Z,4.33
2019-02-16T05:34:35.052Z,3.70
2019-02-16T05:37:03.969Z,3.27
2019-02-16T05:39:32.967Z,3.35
2019-02-16T05:42:01.892Z,4.78
2019-02-16T05:44:30.838Z,5.12
2019-02-16T05:46:59.717Z,4.67
2019-02-16T05:49:28.540Z,3.75
2019-02-16T05:51:57.489Z,4.43
2019-02-16T05:54:26.399Z,3.90
2019-02-16T05:56:55.392Z,3.80
2019-02-16T05:59:24.276Z,3.62
2019-02-16T06:01:54.416Z,4.03
2019-02-16T06:04:23.579Z,3.90
2019-02-16T06:06:52.546Z,3.87
2019-02-16T06:09:21.508Z,3.75
2019-02-16T06:11:50.538Z,3.57
2019-02-16T06:14:19.818Z,3.87
2019-02-16T06:16:49.038Z,3.17
2019-02-16T06:19:18.527Z,3.85
2019-02-16T06:21:47.347Z,3.80
2019-02-16T06:24:16.329Z,3.87
2019-02-16T06:26:45.231Z,3.47
2019-02-16T06:29:14.426Z,3.55
2019-02-16T06:31:43.587Z,4.03
2019-02-16T06:34:12.424Z,3.55
2019-02-16T06:36:42.514Z,3.47
2019-02-16T06:39:11.927Z,3.77
2019-02-16T06:41:40.827Z,3.40
2019-02-16T06:44:09.800Z,3.67
2019-02-16T06:46:38.643Z,3.60
2019-02-16T06:49:07.962Z,3.77
2019-02-16T06:51:37.500Z,3.63
2019-02-16T06:54:06.435Z,3.30
2019-02-16T06:56:43.750Z,3.70
2019-02-16T06:59:12.800Z,4.30
2019-02-16T07:01:42.247Z,3.60
2019-02-16T07:04:11.156Z,3.60
2019-02-16T07:06:40.334Z,3.73
2019-02-16T07:09:09.652Z,3.35
2019-02-16T07:11:38.574Z,3.30
2019-02-16T07:14:07.537Z,3.60
2019-02-16T07:16:43.572Z,3.60
2019-02-16T07:19:24.466Z,3.70
2019-02-16T07:21:54.162Z,3.10
2019-02-16T07:24:23.482Z,3.72
2019-02-16T07:26:52.600Z,3.67
2019-02-16T07:29:21.424Z,3.50
2019-02-16T07:31:50.467Z,3.87
2019-02-16T07:34:19.671Z,3.50
2019-02-16T07:36:48.627Z,3.75
2019-02-16T07:39:17.508Z,3.63
2019-02-16T07:41:46.367Z,3.53
2019-02-16T07:44:34.298Z,4.07
2019-02-16T07:47:22.903Z,3.83
2019-02-16T07:49:57.744Z,3.83
2019-02-16T07:52:45.156Z,3.73
2019-02-16T07:55:20.683Z,4.23
2019-02-16T07:58:07.795Z,3.80
2019-02-16T08:00:54.710Z,4.20
2019-02-16T08:03:52.245Z,4.73
2019-02-16T08:06:39.051Z,4.13
2019-02-16T08:09:23.139Z,4.13
2019-02-16T08:12:23.976Z,3.97
2019-02-16T08:15:15.075Z,4.93
2019-02-16T08:17:55.618Z,4.07
2019-02-16T08:20:50.714Z,3.70
2019-02-16T08:23:51.758Z,3.80
2019-02-16T08:26:37.043Z,4.37
2019-02-16T08:29:24.984Z,4.27
2019-02-16T08:32:11.647Z,4.33
2019-02-16T08:35:04.501Z,4.43
2019-02-16T08:37:49.092Z,3.73
2019-02-16T08:40:25.258Z,4.30
2019-02-16T08:43:12.306Z,4.83
2019-02-16T08:46:09.578Z,4.40
2019-02-16T08:48:44.351Z,4.17
2019-02-16T08:51:26.767Z,4.33
2019-02-16T08:54:08.723Z,4.70
2019-02-16T08:56:55.850Z,4.80
2019-02-16T08:59:32.046Z,4.43
2019-02-16T09:02:14.242Z,4.37
2019-02-16T09:05:14.299Z,4.07
2019-02-16T09:07:49.145Z,3.70
2019-02-16T09:10:41.652Z,4.27
2019-02-16T09:13:48.056Z,4.40
2019-02-16T09:16:27.550Z,4.33
2019-02-16T09:19:01.219Z,4.80
2019-02-16T09:21:43.799Z,4.13
2019-02-16T09:24:28.633Z,4.50
2019-02-16T09:27:23.424Z,3.80
2019-02-16T09:30:07.286Z,4.03
2019-02-16T09:32:46.386Z,3.97
2019-02-16T09:35:28.127Z,4.13
2019-02-16T09:38:22.963Z,3.83
2019-02-16T09:41:12.839Z,4.40
2019-02-16T09:43:59.892Z,4.47
2019-02-16T09:46:54.048Z,4.60
2019-02-16T09:49:42.049Z,4.03
2019-02-16T09:52:19.805Z,4.47
2019-02-16T09:55:06.684Z,4.50
2019-02-16T09:57:45.679Z,4.57
2019-02-16T10:00:36.840Z,4.40
2019-02-16T10:03:22.122Z,4.63
2019-02-16T10:06:16.203Z,4.27
2019-02-16T10:09:06.951Z,4.10
2019-02-16T10:12:01.419Z,4.57
2019-02-16T10:14:52.741Z,3.90
2019-02-16T10:17:39.936Z,4.50
2019-02-16T10:20:33.914Z,4.33
2019-02-16T10:23:33.791Z,4.20
2019-02-16T10:26:20.746Z,4.43
2019-02-16T10:29:11.825Z,4.20
2019-02-16T10:31:56.939Z,4.53
2019-02-16T10:34:36.603Z,4.37
2019-02-16T10:37:17.323Z,4.23
2019-02-16T10:39:57.347Z,4.27
2019-02-16T10:42:44.028Z,3.90
2019-02-16T10:45:26.048Z,4.20
2019-02-16T10:48:14.148Z,3.43
2019-02-16T10:50:54.598Z,4.37
2019-02-16T10:53:32.826Z,3.97
2019-02-16T10:56:26.814Z,4.00
2019-02-16T10:59:13.618Z,4.60
2019-02-16T11:01:59.638Z,4.03
2019-02-16T11:04:50.663Z,3.93
2019-02-16T11:07:41.569Z,4.37
2019-02-16T11:10:28.578Z,3.97
2019-02-16T11:13:06.900Z,4.67
2019-02-16T11:15:48.798Z,4.60
2019-02-16T11:18:42.858Z,4.90
2019-02-16T11:21:33.715Z,4.33
2019-02-16T11:24:07.839Z,4.53
2019-02-16T11:26:54.719Z,4.70
2019-02-16T11:29:52.194Z,4.63
2019-02-16T11:32:55.072Z,4.60
2019-02-16T11:35:29.592Z,4.23
2019-02-16T11:38:16.277Z,4.80
2019-02-16T11:40:58.871Z,4.33
2019-02-16T11:43:36.454Z,4.77
2019-02-16T11:46:23.391Z,4.93
2019-02-16T11:49:17.648Z,4.90
2019-02-16T11:52:08.605Z,4.63
2019-02-16T11:54:57.200Z,4.50
2019-02-16T11:57:44.304Z,4.10
2019-02-16T12:00:28.946Z,4.93
2019-02-16T12:03:04.734Z,5.23
2019-02-16T12:05:51.843Z,4.87
2019-02-16T12:08:33.163Z,4.53
2019-02-16T12:11:24.947Z,4.57
2019-02-16T12:14:19.110Z,5.23
2019-02-16T12:17:01.442Z,5.30
2019-02-16T12:19:43.014Z,5.53
2019-02-16T12:22:29.609Z,5.57
2019-02-16T12:25:29.909Z,5.27
2019-02-16T12:28:14.725Z,6.17
2019-02-16T12:30:57.122Z,5.17
2019-02-16T12:33:58.431Z,5.70
2019-02-16T12:36:46.559Z,5.63
2019-02-16T12:39:24.793Z,6.07
2019-02-16T12:42:01.496Z,5.93
2019-02-16T12:44:48.423Z,4.83
2019-02-16T12:47:27.823Z,5.83
2019-02-16T12:50:03.617Z,5.87
2019-02-16T12:52:54.541Z,5.70
2019-02-16T12:55:35.931Z,5.47
2019-02-16T12:58:16.887Z,5.50
2019-02-16T13:01:08.022Z,6.63
2019-02-16T13:04:05.469Z,5.90
2019-02-16T13:07:00.203Z,6.23
2019-02-16T13:09:54.145Z,5.30
2019-02-16T13:12:48.275Z,6.13
2019-02-16T13:15:35.148Z,5.67
2019-02-16T13:18:11.058Z,6.30
2019-02-16T13:21:02.210Z,6.17
2019-02-16T13:23:39.307Z,6.40
2019-02-16T13:26:21.459Z,6.60
2019-02-16T13:29:03.526Z,6.63
2019-02-16T13:31:49.361Z,6.63
2019-02-16T13:34:21.748Z,6.20
2019-02-16T13:37:12.762Z,6.87
2019-02-16T13:40:01.818Z,6.17
2019-02-16T13:42:45.536Z,5.87
2019-02-16T13:45:33.719Z,5.90
2019-02-16T13:48:16.979Z,5.10
2019-02-16T13:51:04.155Z,5.13
2019-02-16T13:53:44.062Z,5.20
2019-02-16T13:56:31.008Z,5.47
2019-02-16T13:59:15.370Z,5.70
2019-02-16T14:02:02.662Z,5.57
2019-02-16T14:04:44.502Z,5.50
2019-02-16T14:07:32.331Z,4.77
2019-02-16T14:10:26.515Z,5.43
2019-02-16T14:13:01.490Z,5.43
2019-02-16T14:15:46.278Z,6.40
2019-02-16T14:18:15.335Z,6.93
2019-02-16T14:20:44.539Z,5.87
2019-02-16T14:23:13.430Z,5.57
2019-02-16T14:25:46.563Z,4.93
2019-02-16T14:28:15.950Z,6.23
2019-02-16T14:30:45.270Z,5.13
2019-02-16T14:33:14.450Z,5.17
2019-02-16T14:35:43.310Z,6.03
2019-02-16T14:38:32.069Z,5.20
2019-02-16T14:41:00.983Z,4.97
2019-02-16T14:43:30.405Z,4.47
2019-02-16T14:45:59.274Z,4.70
2019-02-16T14:48:28.302Z,5.43
2019-02-16T14:50:57.370Z,5.20
2019-02-16T14:53:26.403Z,4.50
2019-02-16T14:55:55.663Z,4.73
2019-02-16T14:58:24.634Z,5.10
2019-02-16T15:00:53.665Z,5.07
2019-02-16T15:03:22.626Z,4.80
2019-02-16T15:05:51.623Z,4.93
2019-02-16T15:08:20.774Z,4.83
2019-02-16T15:10:49.626Z,4.97
2019-02-16T15:13:18.840Z,5.13
2019-02-16T15:15:47.662Z,4.50
2019-02-16T15:18:16.826Z,5.60
2019-02-16T15:20:45.782Z,4.70
2019-02-16T15:23:14.659Z,4.90
2019-02-16T15:25:43.830Z,4.67
2019-02-16T15:28:12.762Z,4.80
2019-02-16T15:30:41.770Z,4.57
2019-02-16T15:33:11.027Z,4.53
2019-02-16T15:35:39.960Z,4.30
2019-02-16T15:38:08.747Z,4.40
2019-02-16T15:40:37.592Z,4.80
2019-02-16T15:43:06.803Z,4.07
2019-02-16T15:45:36.403Z,4.10
2019-02-16T15:48:05.313Z,3.93
2019-02-16T15:50:34.600Z,4.37
2019-02-16T15:53:03.644Z,3.67
2019-02-16T15:55:32.622Z,4.10
2019-02-16T15:58:01.733Z,3.93
2019-02-16T16:00:30.937Z,4.13
2019-02-16T16:02:59.878Z,4.90
2019-02-16T16:05:29.074Z,4.67
2019-02-16T16:08:16.038Z,4.10
2019-02-16T16:10:52.464Z,4.33
2019-02-16T16:13:31.634Z,3.33
2019-02-16T16:16:22.491Z,3.83
2019-02-16T16:19:10.517Z,4.17
2019-02-16T16:21:55.797Z,3.80
2019-02-16T16:24:42.526Z,4.00
2019-02-16T16:27:18.305Z,4.20
2019-02-16T16:30:12.218Z,4.70
2019-02-16T16:33:00.219Z,4.93
2019-02-16T16:35:48.419Z,4.43
2019-02-16T16:38:35.072Z,3.90
2019-02-16T16:41:16.355Z,3.60
2019-02-16T16:44:13.221Z,4.17
2019-02-16T16:47:16.594Z,3.90
2019-02-16T16:50:04.542Z,4.33
2019-02-16T16:52:51.435Z,3.40
2019-02-16T16:55:28.482Z,4.13
2019-02-16T16:58:13.526Z,3.93
2019-02-16T17:00:54.358Z,3.97
2019-02-16T17:03:57.714Z,3.97
2019-02-16T17:06:45.792Z,3.60
2019-02-16T17:09:39.287Z,4.37
2019-02-16T17:12:34.447Z,4.07
2019-02-16T17:15:08.006Z,4.43
2019-02-16T17:17:53.694Z,4.37
2019-02-16T17:20:40.321Z,4.80
2019-02-16T17:23:33.078Z,4.13
2019-02-16T17:26:38.033Z,4.40
2019-02-16T17:29:24.769Z,3.53
2019-02-16T17:32:02.550Z,3.70
2019-02-16T17:35:05.714Z,3.23
2019-02-16T17:37:44.431Z,3.10
2019-02-16T17:40:23.511Z,3.37
2019-02-16T17:43:11.194Z,3.53
2019-02-16T17:46:08.879Z,3.20
2019-02-16T17:48:56.197Z,2.90
2019-02-16T17:51:32.109Z,3.50
2019-02-16T17:54:19.088Z,4.87
2019-02-16T17:57:05.778Z,3.50
2019-02-16T17:59:49.766Z,3.87
2019-02-16T18:02:38.698Z,3.87
2019-02-16T18:05:30.257Z,3.15
2019-02-16T18:08:21.331Z,3.37
2019-02-16T18:11:09.312Z,4.10
2019-02-16T18:13:57.460Z,4.00
2019-02-16T18:16:32.386Z,3.87
2019-02-16T18:19:13.775Z,3.50
2019-02-16T18:22:07.670Z,3.27
2019-02-16T18:24:48.246Z,3.12
2019-02-16T18:27:28.757Z,4.53
2019-02-16T18:30:16.391Z,3.93
2019-02-16T18:33:03.467Z,4.40
2019-02-16T18:35:42.342Z,4.10
2019-02-16T18:38:27.127Z,4.47
2019-02-16T18:41:27.140Z,4.10
2019-02-16T18:44:24.750Z,3.85
2019-02-16T18:47:06.161Z,3.90
2019-02-16T18:49:42.671Z,4.55
2019-02-16T18:52:22.026Z,4.13
2019-02-16T18:55:10.549Z,4.12
2019-02-16T18:57:59.221Z,5.15
2019-02-16T19:00:43.764Z,4.47
2019-02-16T19:03:34.861Z,4.58
2019-02-16T19:06:15.736Z,4.07
2019-02-16T19:09:16.174Z,4.58
2019-02-16T19:12:00.723Z,4.33
2019-02-16T19:14:45.787Z,5.28
2019-02-16T19:17:21.252Z,5.20
2019-02-16T19:19:57.309Z,4.60
2019-02-16T19:22:31.822Z,4.73
2019-02-16T19:25:22.828Z,5.03
2019-02-16T19:28:29.586Z,4.47
2019-02-16T19:31:16.122Z,4.30
2019-02-16T19:34:07.664Z,4.75
2019-02-16T19:37:08.171Z,4.40
2019-02-16T19:39:56.183Z,5.67
2019-02-16T19:42:43.084Z,6.80
2019-02-16T19:45:32.999Z,7.80
2019-02-16T19:48:11.955Z,9.90
2019-02-16T19:50:47.166Z,9.77
2019-02-16T19:53:28.144Z,8.68
2019-02-16T19:56:25.249Z,6.83
2019-02-16T19:59:13.130Z,6.53
2019-02-16T20:02:03.129Z,6.13
2019-02-16T20:04:54.106Z,5.03
2019-02-16T20:07:33.067Z,4.93
2019-02-16T20:10:24.799Z,5.08
2019-02-16T20:13:21.316Z,5.35
2019-02-16T20:16:15.310Z,4.77
2019-02-16T20:19:18.423Z,4.95
2019-02-16T20:22:07.143Z,4.97
2019-02-16T20:24:55.045Z,4.62
2019-02-16T20:27:42.426Z,5.50
2019-02-16T20:30:30.478Z,4.67
2019-02-16T20:33:09.251Z,4.83
2019-02-16T20:36:03.078Z,4.97
2019-02-16T20:38:40.840Z,4.50
2019-02-16T20:41:26.638Z,4.97
2019-02-16T20:44:23.547Z,5.62
2019-02-16T20:47:08.431Z,4.73
2019-02-16T20:49:59.612Z,4.55
2019-02-16T20:52:46.249Z,5.05
2019-02-16T20:55:40.486Z,4.90
2019-02-16T20:58:17.631Z,5.22
2019-02-16T21:01:05.612Z,5.03
2019-02-16T21:03:53.718Z,4.75
2019-02-16T21:06:40.301Z,5.20
2019-02-16T21:09:27.134Z,5.45
2019-02-16T21:12:05.807Z,5.03
2019-02-16T21:14:44.489Z,5.12
2019-02-16T21:17:38.059Z,5.57
2019-02-16T21:20:26.582Z,4.92
2019-02-16T21:23:25.966Z,5.15
2019-02-16T21:26:10.053Z,4.70
2019-02-16T21:29:12.624Z,4.83
2019-02-16T21:32:02.677Z,5.17
2019-02-16T21:34:42.142Z,5.33
2019-02-16T21:37:21.224Z,5.10
2019-02-16T21:39:58.351Z,5.20
2019-02-16T21:42:37.774Z,4.97
2019-02-16T21:45:31.451Z,5.22
2019-02-16T21:48:18.259Z,4.87
2019-02-16T21:51:12.089Z,5.10
2019-02-16T21:53:59.888Z,4.97
2019-02-16T21:56:40.459Z,5.20
2019-02-16T21:59:31.566Z,4.97
2019-02-16T22:02:17.067Z,4.55
2019-02-16T22:05:03.597Z,5.25
2019-02-16T22:08:04.003Z,4.87
2019-02-16T22:10:42.815Z,5.50
2019-02-16T22:13:11.723Z,5.03
2019-02-16T22:15:40.766Z,5.73
2019-02-16T22:18:09.655Z,5.22
2019-02-16T22:20:38.736Z,4.78
2019-02-16T22:23:07.780Z,4.87
2019-02-16T22:25:37.077Z,5.87
2019-02-16T22:28:05.959Z,5.17
2019-02-16T22:30:35.201Z,4.33
2019-02-16T22:33:04.270Z,5.72
2019-02-16T22:35:33.111Z,5.17
2019-02-16T22:38:02.448Z,5.22
2019-02-16T22:40:31.742Z,5.50
2019-02-16T22:43:01.011Z,5.30
2019-02-16T22:45:29.875Z,5.83
2019-02-16T22:47:58.802Z,6.03
2019-02-16T22:50:27.982Z,5.60
2019-02-16T22:52:56.782Z,5.40
2019-02-16T22:55:25.606Z,7.45
2019-02-16T22:57:54.498Z,8.68
2019-02-16T23:00:37.203Z,8.10
2019-02-16T23:03:07.709Z,7.58
2019-02-16T23:05:36.686Z,9.10
2019-02-16T23:08:06.111Z,9.23
2019-02-16T23:10:35.135Z,7.30
2019-02-16T23:13:04.110Z,7.40
2019-02-16T23:15:33.054Z,6.77
2019-02-16T23:18:01.982Z,8.58
2019-02-16T23:20:31.297Z,9.07
2019-02-16T23:23:00.186Z,7.80
2019-02-16T23:25:29.103Z,7.10
2019-02-16T23:27:58.262Z,6.78
2019-02-16T23:30:27.500Z,6.23
2019-02-16T23:32:57.118Z,5.83
2019-02-16T23:35:26.310Z,5.53
2019-02-16T23:37:55.137Z,6.08
2019-02-16T23:40:24.203Z,6.45
2019-02-16T23:42:53.222Z,5.55
2019-02-16T23:45:22.254Z,5.85
2019-02-16T23:47:51.231Z,6.30
2019-02-16T23:50:20.156Z,6.08
2019-02-16T23:52:49.019Z,5.85
2019-02-16T23:55:17.855Z,5.37
2019-02-16T23:57:46.704Z,5.95
